WZZ2402 EPPO-LROP
Flight info
| Callsign | WZZ2402 |
|---|---|
| Flight time | N/A |
| Altitude | 37000 |
| Route | XIDNA DCT VAGSA DCT SUDOL DCT KELEL DCT KEKED DCT KARIL DCT DENAK |
| Aircraft | A20N/M-SDE2E3FGHIRWXY/LB1 |
Departure
| Time | 2026-03-29 08:30 |
|---|---|
| Airport | Poznań-Ławica Airport (EPPO) |
Arrival
| Time | N/A |
|---|---|
| Airport | Bucharest Henri Coandă International Airport (LROP) |
| Time | Latitude | Longitude | Altitude | Speed | Heading |
|---|---|---|---|---|---|
| 2026-03-29 08:14 | 52.41587 | 16.82912 | 292 ft | 0 kts | 192° |
| 2026-03-29 08:22 | 52.41603 | 16.82917 | 294 ft | 2 kts | 189° |
| 2026-03-29 08:23 | 52.41619 | 16.82920 | 294 ft | 2 kts | 183° |
| 2026-03-29 08:23 | 52.41636 | 16.82919 | 294 ft | 2 kts | 171° |
| 2026-03-29 08:23 | 52.41651 | 16.82910 | 293 ft | 2 kts | 139° |
| 2026-03-29 08:23 | 52.41659 | 16.82890 | 297 ft | 1 kts | 107° |
| 2026-03-29 08:24 | 52.41660 | 16.82885 | 291 ft | 0 kts | 105° |
| 2026-03-29 08:26 | 52.41660 | 16.82886 | 291 ft | 0 kts | 105° |
| 2026-03-29 08:26 | 52.41655 | 16.82912 | 294 ft | 5 kts | 105° |
| 2026-03-29 08:26 | 52.41644 | 16.82990 | 291 ft | 9 kts | 103° |
| 2026-03-29 08:27 | 52.41629 | 16.83110 | 294 ft | 13 kts | 102° |
| 2026-03-29 08:27 | 52.41606 | 16.83271 | 293 ft | 16 kts | 102° |
| 2026-03-29 08:27 | 52.41580 | 16.83467 | 295 ft | 19 kts | 102° |
| 2026-03-29 08:27 | 52.41564 | 16.83701 | 291 ft | 22 kts | 93° |
| 2026-03-29 08:28 | 52.41568 | 16.83870 | 293 ft | 13 kts | 70° |
| 2026-03-29 08:28 | 52.41639 | 16.83984 | 294 ft | 16 kts | 23° |
| 2026-03-29 08:28 | 52.41685 | 16.84010 | 291 ft | 2 kts | 19° |
| 2026-03-29 08:28 | 52.41708 | 16.84023 | 291 ft | 5 kts | 19° |
| 2026-03-29 08:29 | 52.41754 | 16.84049 | 296 ft | 8 kts | 19° |
| 2026-03-29 08:29 | 52.41815 | 16.84049 | 293 ft | 10 kts | 328° |
| 2026-03-29 08:29 | 52.41849 | 16.83940 | 294 ft | 12 kts | 284° |
| 2026-03-29 08:29 | 52.41900 | 16.83650 | 296 ft | 57 kts | 290° |
| 2026-03-29 08:30 | 52.42098 | 16.82655 | 293 ft | 127 kts | 288° |
| 2026-03-29 08:30 | 52.42433 | 16.81073 | 616 ft | 155 kts | 291° |
| 2026-03-29 08:30 | 52.42774 | 16.79390 | 1330 ft | 159 kts | 291° |
| 2026-03-29 08:30 | 52.43113 | 16.77573 | 1908 ft | 178 kts | 289° |
| 2026-03-29 08:31 | 52.43470 | 16.75505 | 2351 ft | 199 kts | 290° |
| 2026-03-29 08:31 | 52.43915 | 16.73175 | 2764 ft | 226 kts | 290° |
| 2026-03-29 08:31 | 52.44408 | 16.70655 | 3572 ft | 234 kts | 290° |
| 2026-03-29 08:31 | 52.44908 | 16.68073 | 4389 ft | 242 kts | 289° |
| 2026-03-29 08:32 | 52.45420 | 16.65418 | 5264 ft | 246 kts | 289° |
| 2026-03-29 08:32 | 52.45940 | 16.62711 | 6122 ft | 250 kts | 290° |
| 2026-03-29 08:32 | 52.46467 | 16.59975 | 7048 ft | 253 kts | 288° |
| 2026-03-29 08:32 | 52.46992 | 16.57219 | 7867 ft | 259 kts | 287° |
| 2026-03-29 08:33 | 52.47374 | 16.54676 | 8627 ft | 264 kts | 275° |
| 2026-03-29 08:33 | 52.47270 | 16.51890 | 9453 ft | 264 kts | 251° |
| 2026-03-29 08:33 | 52.46398 | 16.49272 | 10342 ft | 264 kts | 225° |
| 2026-03-29 08:33 | 52.44903 | 16.47574 | 11225 ft | 263 kts | 202° |
| 2026-03-29 08:34 | 52.43137 | 16.46739 | 12105 ft | 266 kts | 186° |
| 2026-03-29 08:34 | 52.41287 | 16.46995 | 12997 ft | 270 kts | 163° |
| 2026-03-29 08:34 | 52.39634 | 16.48502 | 13757 ft | 282 kts | 140° |
| 2026-03-29 08:34 | 52.38462 | 16.51220 | 14127 ft | 308 kts | 116° |
| 2026-03-29 08:35 | 52.37736 | 16.54615 | 14447 ft | 330 kts | 110° |
| 2026-03-29 08:35 | 52.37066 | 16.58332 | 14771 ft | 350 kts | 109° |
| 2026-03-29 08:35 | 52.36365 | 16.62222 | 15317 ft | 361 kts | 109° |
| 2026-03-29 08:35 | 52.35446 | 16.66057 | 16011 ft | 364 kts | 121° |
| 2026-03-29 08:36 | 52.33922 | 16.69356 | 16738 ft | 365 kts | 139° |
| 2026-03-29 08:36 | 52.31823 | 16.71683 | 17473 ft | 366 kts | 157° |
| 2026-03-29 08:36 | 52.30226 | 16.72553 | 17966 ft | 366 kts | 169° |
| 2026-03-29 08:36 | 52.27677 | 16.72754 | 18696 ft | 369 kts | 187° |
| 2026-03-29 08:37 | 52.25166 | 16.71819 | 19337 ft | 373 kts | 196° |
| 2026-03-29 08:37 | 52.21861 | 16.70109 | 20164 ft | 379 kts | 198° |
| 2026-03-29 08:37 | 52.20159 | 16.69221 | 20586 ft | 382 kts | 197° |
| 2026-03-29 08:37 | 52.17553 | 16.68253 | 21207 ft | 386 kts | 188° |
| 2026-03-29 08:38 | 52.14858 | 16.68037 | 21812 ft | 391 kts | 178° |
| 2026-03-29 08:38 | 52.12188 | 16.68671 | 22398 ft | 396 kts | 167° |
| 2026-03-29 08:38 | 52.09566 | 16.70148 | 22985 ft | 400 kts | 158° |
| 2026-03-29 08:38 | 52.07017 | 16.72021 | 23551 ft | 405 kts | 156° |
| 2026-03-29 08:39 | 52.04454 | 16.73981 | 24050 ft | 408 kts | 156° |
| 2026-03-29 08:39 | 52.01873 | 16.75953 | 24502 ft | 412 kts | 156° |
| 2026-03-29 08:39 | 51.99266 | 16.77930 | 24969 ft | 415 kts | 156° |
| 2026-03-29 08:39 | 51.96637 | 16.79912 | 25459 ft | 417 kts | 156° |
| 2026-03-29 08:40 | 51.93996 | 16.81895 | 25940 ft | 419 kts | 156° |
| 2026-03-29 08:40 | 51.91344 | 16.83880 | 26417 ft | 420 kts | 156° |
| 2026-03-29 08:40 | 51.88716 | 16.85843 | 26871 ft | 422 kts | 156° |
| 2026-03-29 08:40 | 51.86036 | 16.87842 | 27302 ft | 425 kts | 156° |
| 2026-03-29 08:41 | 51.83331 | 16.89856 | 27722 ft | 428 kts | 156° |
| 2026-03-29 08:41 | 51.80622 | 16.91871 | 28136 ft | 430 kts | 156° |
| 2026-03-29 08:41 | 51.77892 | 16.93898 | 28536 ft | 432 kts | 156° |
| 2026-03-29 08:41 | 51.75144 | 16.95935 | 28924 ft | 435 kts | 156° |
| 2026-03-29 08:42 | 51.72394 | 16.98025 | 29306 ft | 438 kts | 153° |
| 2026-03-29 08:42 | 51.69778 | 17.00556 | 29740 ft | 439 kts | 145° |
| 2026-03-29 08:42 | 51.67442 | 17.03609 | 30335 ft | 437 kts | 140° |
| 2026-03-29 08:42 | 51.65191 | 17.06899 | 30794 ft | 436 kts | 138° |
| 2026-03-29 08:43 | 51.62994 | 17.10262 | 31150 ft | 437 kts | 137° |
| 2026-03-29 08:43 | 51.60805 | 17.13673 | 31498 ft | 437 kts | 136° |
| 2026-03-29 08:43 | 51.58615 | 17.17094 | 31815 ft | 439 kts | 136° |
| 2026-03-29 08:43 | 51.56415 | 17.20513 | 32167 ft | 439 kts | 136° |
| 2026-03-29 08:44 | 51.54209 | 17.23914 | 32508 ft | 439 kts | 136° |
| 2026-03-29 08:44 | 51.52021 | 17.27265 | 32879 ft | 439 kts | 136° |
| 2026-03-29 08:44 | 51.49795 | 17.30659 | 33246 ft | 439 kts | 136° |
| 2026-03-29 08:44 | 51.47582 | 17.34019 | 33664 ft | 437 kts | 136° |
| 2026-03-29 08:45 | 51.45363 | 17.37383 | 33861 ft | 441 kts | 136° |
| 2026-03-29 08:45 | 51.43152 | 17.40728 | 34108 ft | 442 kts | 136° |
| 2026-03-29 08:45 | 51.40914 | 17.44111 | 34379 ft | 443 kts | 136° |
| 2026-03-29 08:45 | 51.38666 | 17.47503 | 34611 ft | 443 kts | 136° |
| 2026-03-29 08:46 | 51.36417 | 17.50894 | 34876 ft | 443 kts | 136° |
| 2026-03-29 08:46 | 51.34170 | 17.54276 | 35096 ft | 443 kts | 136° |
| 2026-03-29 08:46 | 51.31866 | 17.57559 | 35349 ft | 444 kts | 139° |
| 2026-03-29 08:46 | 51.29514 | 17.60667 | 35582 ft | 444 kts | 140° |
| 2026-03-29 08:47 | 51.27094 | 17.63744 | 35814 ft | 444 kts | 141° |
| 2026-03-29 08:47 | 51.24654 | 17.66802 | 35979 ft | 446 kts | 141° |
| 2026-03-29 08:47 | 51.22208 | 17.69860 | 36207 ft | 446 kts | 141° |
| 2026-03-29 08:47 | 51.19768 | 17.72924 | 36420 ft | 446 kts | 141° |
| 2026-03-29 08:48 | 51.17327 | 17.76003 | 36583 ft | 448 kts | 141° |
| 2026-03-29 08:48 | 51.14883 | 17.79095 | 36765 ft | 449 kts | 141° |
| 2026-03-29 08:48 | 51.12444 | 17.82187 | 36988 ft | 448 kts | 140° |
| 2026-03-29 08:48 | 51.10005 | 17.85279 | 37163 ft | 449 kts | 141° |
| 2026-03-29 08:49 | 51.05123 | 17.91459 | 37181 ft | 449 kts | 141° |
| 2026-03-29 08:49 | 51.00228 | 17.97636 | 37181 ft | 448 kts | 141° |
| 2026-03-29 08:50 | 50.95332 | 18.03795 | 37173 ft | 449 kts | 141° |
| 2026-03-29 08:50 | 50.90458 | 18.09909 | 37174 ft | 449 kts | 141° |
| 2026-03-29 08:51 | 50.85539 | 18.16062 | 37166 ft | 449 kts | 141° |
| 2026-03-29 08:51 | 50.80637 | 18.22176 | 37164 ft | 447 kts | 141° |
| 2026-03-29 08:52 | 50.75790 | 18.28205 | 37153 ft | 446 kts | 141° |
| 2026-03-29 08:52 | 50.70904 | 18.34269 | 37155 ft | 447 kts | 141° |
| 2026-03-29 08:53 | 50.66004 | 18.40334 | 37142 ft | 447 kts | 141° |
| 2026-03-29 08:53 | 50.61243 | 18.46594 | 37145 ft | 447 kts | 138° |
| 2026-03-29 08:54 | 50.56541 | 18.53060 | 37134 ft | 447 kts | 138° |
| 2026-03-29 08:54 | 50.51860 | 18.59489 | 37133 ft | 447 kts | 138° |
| 2026-03-29 08:55 | 50.47189 | 18.65844 | 37136 ft | 447 kts | 139° |
| 2026-03-29 08:55 | 50.42454 | 18.72244 | 37134 ft | 448 kts | 139° |
| 2026-03-29 08:56 | 50.37714 | 18.78628 | 37117 ft | 448 kts | 139° |
| 2026-03-29 08:56 | 50.33029 | 18.84922 | 37110 ft | 442 kts | 139° |
| 2026-03-29 08:57 | 50.28364 | 18.91174 | 37113 ft | 441 kts | 139° |
| 2026-03-29 08:57 | 50.23689 | 18.97422 | 37118 ft | 443 kts | 139° |
| 2026-03-29 08:58 | 50.18988 | 19.03689 | 37120 ft | 445 kts | 139° |
| 2026-03-29 08:58 | 50.14309 | 19.09910 | 37113 ft | 444 kts | 139° |
| 2026-03-29 08:59 | 50.09612 | 19.16140 | 37113 ft | 442 kts | 140° |
| 2026-03-29 08:59 | 50.04923 | 19.22341 | 37109 ft | 442 kts | 140° |
| 2026-03-29 09:00 | 50.00228 | 19.28532 | 37111 ft | 442 kts | 140° |
| 2026-03-29 09:00 | 49.95554 | 19.34681 | 37105 ft | 442 kts | 140° |
| 2026-03-29 09:01 | 49.90856 | 19.40843 | 37103 ft | 440 kts | 140° |
| 2026-03-29 09:01 | 49.86179 | 19.46963 | 37086 ft | 438 kts | 140° |
| 2026-03-29 09:02 | 49.81540 | 19.53019 | 37096 ft | 438 kts | 140° |
| 2026-03-29 09:02 | 49.76859 | 19.59113 | 37088 ft | 440 kts | 140° |
| 2026-03-29 09:03 | 49.72175 | 19.65194 | 37078 ft | 439 kts | 140° |
| 2026-03-29 09:03 | 49.67499 | 19.71248 | 37069 ft | 437 kts | 140° |
| 2026-03-29 09:04 | 49.62849 | 19.77255 | 37071 ft | 438 kts | 140° |
| 2026-03-29 09:04 | 49.58150 | 19.83307 | 37060 ft | 440 kts | 140° |
| 2026-03-29 09:05 | 49.53476 | 19.89313 | 37058 ft | 440 kts | 140° |
| 2026-03-29 09:05 | 49.48759 | 19.95359 | 37044 ft | 440 kts | 140° |
| 2026-03-29 09:06 | 49.44043 | 20.01387 | 37047 ft | 440 kts | 140° |
| 2026-03-29 09:06 | 49.39365 | 20.07353 | 37025 ft | 437 kts | 140° |
| 2026-03-29 09:07 | 49.34695 | 20.13294 | 37022 ft | 436 kts | 140° |
| 2026-03-29 09:07 | 49.30054 | 20.19306 | 36998 ft | 434 kts | 138° |
| 2026-03-29 09:08 | 49.25656 | 20.25575 | 36992 ft | 433 kts | 137° |
| 2026-03-29 09:08 | 49.21305 | 20.31932 | 36994 ft | 433 kts | 137° |
| 2026-03-29 09:09 | 49.16918 | 20.38284 | 36991 ft | 435 kts | 137° |
| 2026-03-29 09:09 | 49.12506 | 20.44611 | 36982 ft | 434 kts | 137° |
| 2026-03-29 09:10 | 49.08128 | 20.50856 | 36979 ft | 432 kts | 137° |
| 2026-03-29 09:10 | 49.03723 | 20.57120 | 36982 ft | 433 kts | 138° |
| 2026-03-29 09:11 | 48.99307 | 20.63385 | 36943 ft | 435 kts | 137° |
| 2026-03-29 09:11 | 48.94909 | 20.69613 | 36941 ft | 431 kts | 138° |
| 2026-03-29 09:12 | 48.90542 | 20.75782 | 36941 ft | 425 kts | 138° |
| 2026-03-29 09:12 | 48.86193 | 20.81907 | 36929 ft | 427 kts | 138° |
| 2026-03-29 09:13 | 48.81818 | 20.88053 | 36923 ft | 429 kts | 138° |
| 2026-03-29 09:13 | 48.77427 | 20.94210 | 36915 ft | 428 kts | 138° |
| 2026-03-29 09:14 | 48.73080 | 21.00290 | 36912 ft | 426 kts | 138° |
| 2026-03-29 09:14 | 48.68710 | 21.06386 | 36917 ft | 427 kts | 138° |
| 2026-03-29 09:15 | 48.64326 | 21.12485 | 36913 ft | 429 kts | 138° |
| 2026-03-29 09:15 | 48.59945 | 21.18566 | 36911 ft | 428 kts | 138° |
| 2026-03-29 09:16 | 48.53364 | 21.27673 | 36909 ft | 427 kts | 139° |
| 2026-03-29 09:17 | 48.49148 | 21.33994 | 36896 ft | 427 kts | 134° |
| 2026-03-29 09:17 | 48.45129 | 21.40532 | 36894 ft | 428 kts | 134° |
| 2026-03-29 09:18 | 48.41096 | 21.47117 | 36893 ft | 426 kts | 134° |
| 2026-03-29 09:18 | 48.39351 | 21.49939 | 36894 ft | 427 kts | 134° |
| 2026-03-29 09:19 | 48.35288 | 21.56457 | 36888 ft | 428 kts | 134° |
| 2026-03-29 09:19 | 48.31209 | 21.62962 | 36888 ft | 427 kts | 134° |
| 2026-03-29 09:20 | 48.27154 | 21.69409 | 36883 ft | 426 kts | 135° |
| 2026-03-29 09:20 | 48.23071 | 21.75885 | 36884 ft | 428 kts | 134° |
| 2026-03-29 09:21 | 48.18973 | 21.82373 | 36880 ft | 428 kts | 134° |
| 2026-03-29 09:21 | 48.14872 | 21.88849 | 36881 ft | 427 kts | 135° |
| 2026-03-29 09:22 | 48.10807 | 21.95251 | 36883 ft | 427 kts | 135° |
| 2026-03-29 09:22 | 48.06706 | 22.01695 | 36878 ft | 427 kts | 135° |
| 2026-03-29 09:23 | 48.02598 | 22.08133 | 36880 ft | 427 kts | 135° |
| 2026-03-29 09:23 | 47.98495 | 22.14549 | 36871 ft | 428 kts | 135° |
| 2026-03-29 09:24 | 47.94380 | 22.20967 | 36868 ft | 426 kts | 135° |
| 2026-03-29 09:24 | 47.90309 | 22.27301 | 36859 ft | 425 kts | 135° |
| 2026-03-29 09:25 | 47.86207 | 22.33669 | 36859 ft | 425 kts | 135° |
| 2026-03-29 09:25 | 47.82108 | 22.40014 | 36850 ft | 424 kts | 135° |
| 2026-03-29 09:26 | 47.78033 | 22.46309 | 36848 ft | 424 kts | 135° |
| 2026-03-29 09:26 | 47.73957 | 22.52595 | 36852 ft | 420 kts | 135° |
| 2026-03-29 09:27 | 47.70564 | 22.57816 | 36864 ft | 419 kts | 135° |
| 2026-03-29 09:27 | 47.66533 | 22.64004 | 36854 ft | 420 kts | 135° |
| 2026-03-29 09:28 | 47.62454 | 22.70253 | 36854 ft | 421 kts | 135° |
| 2026-03-29 09:28 | 47.58369 | 22.76495 | 36850 ft | 421 kts | 135° |
| 2026-03-29 09:29 | 47.54310 | 22.82684 | 36851 ft | 416 kts | 135° |
| 2026-03-29 09:29 | 47.50302 | 22.88780 | 36850 ft | 415 kts | 135° |
| 2026-03-29 09:30 | 47.46268 | 22.94901 | 36846 ft | 415 kts | 135° |
| 2026-03-29 09:30 | 47.42221 | 23.01029 | 36844 ft | 415 kts | 135° |
| 2026-03-29 09:31 | 47.38205 | 23.07094 | 36835 ft | 415 kts | 135° |
| 2026-03-29 09:31 | 47.34172 | 23.13171 | 36835 ft | 414 kts | 135° |
| 2026-03-29 09:32 | 47.30131 | 23.19246 | 36830 ft | 414 kts | 135° |
| 2026-03-29 09:32 | 47.26112 | 23.25274 | 36830 ft | 415 kts | 135° |
| 2026-03-29 09:33 | 47.20040 | 23.34354 | 36828 ft | 414 kts | 135° |
| 2026-03-29 09:33 | 47.15985 | 23.40401 | 36830 ft | 414 kts | 135° |
| 2026-03-29 09:34 | 47.11938 | 23.46424 | 36829 ft | 414 kts | 135° |
| 2026-03-29 09:34 | 47.07910 | 23.52402 | 36828 ft | 414 kts | 135° |
| 2026-03-29 09:35 | 47.03851 | 23.58413 | 36832 ft | 414 kts | 135° |
| 2026-03-29 09:35 | 46.99806 | 23.64391 | 36825 ft | 415 kts | 135° |
| 2026-03-29 09:36 | 46.95733 | 23.70395 | 36827 ft | 415 kts | 135° |
| 2026-03-29 09:36 | 46.91655 | 23.76392 | 36829 ft | 414 kts | 135° |
| 2026-03-29 09:37 | 46.87583 | 23.82369 | 36829 ft | 414 kts | 135° |
| 2026-03-29 09:37 | 46.83526 | 23.88308 | 36827 ft | 414 kts | 135° |
| 2026-03-29 09:38 | 46.79440 | 23.94278 | 36824 ft | 415 kts | 135° |
| 2026-03-29 09:38 | 46.75354 | 24.00233 | 36821 ft | 415 kts | 135° |
| 2026-03-29 09:39 | 46.71286 | 24.06148 | 36825 ft | 415 kts | 135° |
| 2026-03-29 09:39 | 46.67196 | 24.12083 | 36810 ft | 415 kts | 135° |
| 2026-03-29 09:40 | 46.63093 | 24.18023 | 36805 ft | 415 kts | 135° |
| 2026-03-29 09:40 | 46.58980 | 24.23963 | 36812 ft | 416 kts | 135° |
| 2026-03-29 09:41 | 46.54891 | 24.29856 | 36812 ft | 416 kts | 135° |
| 2026-03-29 09:41 | 46.50773 | 24.35777 | 36814 ft | 416 kts | 135° |
| 2026-03-29 09:42 | 46.46653 | 24.41688 | 36828 ft | 416 kts | 135° |
| 2026-03-29 09:42 | 46.42550 | 24.47561 | 36830 ft | 416 kts | 135° |
| 2026-03-29 09:43 | 46.38428 | 24.53447 | 36826 ft | 416 kts | 135° |
| 2026-03-29 09:43 | 46.34302 | 24.59326 | 36818 ft | 416 kts | 135° |
| 2026-03-29 09:44 | 46.30195 | 24.65167 | 36814 ft | 416 kts | 135° |
| 2026-03-29 09:44 | 46.26062 | 24.71031 | 36804 ft | 416 kts | 135° |
| 2026-03-29 09:45 | 46.21917 | 24.76897 | 36816 ft | 417 kts | 135° |
| 2026-03-29 09:45 | 46.17764 | 24.82762 | 36816 ft | 417 kts | 135° |
| 2026-03-29 09:46 | 46.13610 | 24.88616 | 36818 ft | 417 kts | 135° |
| 2026-03-29 09:46 | 46.09482 | 24.94420 | 36817 ft | 417 kts | 135° |
| 2026-03-29 09:47 | 46.05319 | 25.00261 | 36819 ft | 417 kts | 136° |
| 2026-03-29 09:47 | 46.01159 | 25.06085 | 36818 ft | 417 kts | 136° |
| 2026-03-29 09:48 | 45.96992 | 25.11905 | 36826 ft | 417 kts | 136° |
| 2026-03-29 09:48 | 45.92846 | 25.17683 | 36822 ft | 417 kts | 136° |
| 2026-03-29 09:49 | 45.88678 | 25.23479 | 36816 ft | 417 kts | 136° |
| 2026-03-29 09:49 | 45.84509 | 25.29264 | 36824 ft | 416 kts | 136° |
| 2026-03-29 09:50 | 45.80370 | 25.34993 | 36807 ft | 416 kts | 136° |
| 2026-03-29 09:50 | 45.76194 | 25.40762 | 36802 ft | 416 kts | 136° |
| 2026-03-29 09:51 | 45.72022 | 25.46513 | 36803 ft | 416 kts | 136° |
| 2026-03-29 09:51 | 45.67858 | 25.52240 | 36820 ft | 417 kts | 136° |
| 2026-03-29 09:52 | 45.63664 | 25.57997 | 36818 ft | 417 kts | 136° |
| 2026-03-29 09:52 | 45.59476 | 25.63732 | 36819 ft | 417 kts | 136° |
| 2026-03-29 09:53 | 45.55287 | 25.69457 | 36806 ft | 417 kts | 136° |
| 2026-03-29 09:53 | 45.51097 | 25.75169 | 36791 ft | 417 kts | 136° |
| 2026-03-29 09:54 | 45.46924 | 25.80846 | 36799 ft | 416 kts | 136° |
| 2026-03-29 09:54 | 45.42730 | 25.86540 | 36786 ft | 416 kts | 136° |
| 2026-03-29 09:55 | 45.40629 | 25.89388 | 36669 ft | 416 kts | 136° |
| 2026-03-29 09:55 | 45.38535 | 25.92224 | 36423 ft | 415 kts | 136° |
| 2026-03-29 09:55 | 45.36446 | 25.95049 | 36156 ft | 413 kts | 136° |
| 2026-03-29 09:55 | 45.34383 | 25.97836 | 35903 ft | 411 kts | 136° |
| 2026-03-29 09:56 | 45.32318 | 26.00624 | 35643 ft | 408 kts | 136° |
| 2026-03-29 09:56 | 45.30264 | 26.03393 | 35414 ft | 405 kts | 136° |
| 2026-03-29 09:56 | 45.28229 | 26.06133 | 35162 ft | 402 kts | 136° |
| 2026-03-29 09:56 | 45.26207 | 26.08854 | 34918 ft | 399 kts | 136° |
| 2026-03-29 09:57 | 45.24194 | 26.11560 | 34677 ft | 397 kts | 136° |
| 2026-03-29 09:57 | 45.22185 | 26.14256 | 34439 ft | 394 kts | 136° |
| 2026-03-29 09:57 | 45.20223 | 26.16889 | 34192 ft | 392 kts | 136° |
| 2026-03-29 09:57 | 45.18247 | 26.19537 | 33835 ft | 387 kts | 136° |
| 2026-03-29 09:58 | 45.16300 | 26.22143 | 33467 ft | 382 kts | 136° |
| 2026-03-29 09:58 | 45.14370 | 26.24724 | 32851 ft | 381 kts | 136° |
| 2026-03-29 09:58 | 45.12433 | 26.27312 | 32150 ft | 383 kts | 136° |
| 2026-03-29 09:58 | 45.10484 | 26.29911 | 31420 ft | 387 kts | 135° |
| 2026-03-29 09:59 | 45.08543 | 26.32497 | 30714 ft | 390 kts | 135° |
| 2026-03-29 09:59 | 45.06554 | 26.35146 | 29919 ft | 394 kts | 135° |
| 2026-03-29 09:59 | 45.04545 | 26.37822 | 28964 ft | 398 kts | 135° |
| 2026-03-29 09:59 | 45.02481 | 26.40464 | 27969 ft | 403 kts | 139° |
| 2026-03-29 10:00 | 45.00102 | 26.42619 | 27065 ft | 410 kts | 151° |
| 2026-03-29 10:00 | 44.97378 | 26.43894 | 26306 ft | 416 kts | 165° |
| 2026-03-29 10:00 | 44.94507 | 26.44467 | 25635 ft | 417 kts | 169° |
| 2026-03-29 10:00 | 44.91620 | 26.44873 | 24975 ft | 415 kts | 170° |
| 2026-03-29 10:01 | 44.88740 | 26.45258 | 24301 ft | 415 kts | 170° |
| 2026-03-29 10:01 | 44.85895 | 26.45646 | 23647 ft | 414 kts | 170° |
| 2026-03-29 10:01 | 44.83032 | 26.46041 | 22981 ft | 413 kts | 170° |
| 2026-03-29 10:01 | 44.80179 | 26.46440 | 22317 ft | 409 kts | 170° |
| 2026-03-29 10:02 | 44.77341 | 26.46657 | 21716 ft | 408 kts | 178° |
| 2026-03-29 10:02 | 44.74528 | 26.45983 | 21124 ft | 413 kts | 194° |
| 2026-03-29 10:02 | 44.71950 | 26.44171 | 20553 ft | 419 kts | 211° |
| 2026-03-29 10:02 | 44.69874 | 26.41346 | 19976 ft | 425 kts | 229° |
| 2026-03-29 10:03 | 44.68473 | 26.37676 | 19440 ft | 429 kts | 248° |
| 2026-03-29 10:03 | 44.67853 | 26.33576 | 19022 ft | 427 kts | 261° |
| 2026-03-29 10:03 | 44.67544 | 26.29479 | 18843 ft | 415 kts | 262° |
| 2026-03-29 10:03 | 44.67278 | 26.25504 | 18644 ft | 403 kts | 262° |
| 2026-03-29 10:04 | 44.67014 | 26.21643 | 18446 ft | 391 kts | 262° |
| 2026-03-29 10:04 | 44.66747 | 26.17886 | 18217 ft | 382 kts | 261° |
| 2026-03-29 10:04 | 44.66475 | 26.14167 | 17582 ft | 384 kts | 261° |
| 2026-03-29 10:04 | 44.66198 | 26.10460 | 16919 ft | 386 kts | 262° |
| 2026-03-29 10:05 | 44.65915 | 26.06717 | 16401 ft | 383 kts | 262° |
| 2026-03-29 10:05 | 44.65635 | 26.03013 | 15914 ft | 380 kts | 262° |
| 2026-03-29 10:05 | 44.65354 | 25.99330 | 15430 ft | 376 kts | 262° |
| 2026-03-29 10:05 | 44.65075 | 25.95687 | 14959 ft | 373 kts | 262° |
| 2026-03-29 10:06 | 44.64797 | 25.92080 | 14479 ft | 370 kts | 262° |
| 2026-03-29 10:06 | 44.64521 | 25.88508 | 14050 ft | 366 kts | 262° |
| 2026-03-29 10:06 | 44.64246 | 25.84973 | 13646 ft | 363 kts | 262° |
| 2026-03-29 10:06 | 44.63975 | 25.81507 | 13213 ft | 360 kts | 262° |
| 2026-03-29 10:07 | 44.63701 | 25.78013 | 12739 ft | 358 kts | 262° |
| 2026-03-29 10:07 | 44.63428 | 25.74540 | 12302 ft | 354 kts | 263° |
| 2026-03-29 10:07 | 44.63162 | 25.71156 | 12096 ft | 340 kts | 263° |
| 2026-03-29 10:07 | 44.62911 | 25.67979 | 11862 ft | 324 kts | 263° |
| 2026-03-29 10:08 | 44.62666 | 25.64899 | 11606 ft | 309 kts | 263° |
| 2026-03-29 10:08 | 44.62432 | 25.61969 | 11404 ft | 294 kts | 264° |
| 2026-03-29 10:08 | 44.62207 | 25.59172 | 11153 ft | 282 kts | 264° |
| 2026-03-29 10:08 | 44.61990 | 25.56476 | 10790 ft | 273 kts | 264° |
| 2026-03-29 10:09 | 44.61777 | 25.53843 | 10309 ft | 271 kts | 264° |
| 2026-03-29 10:09 | 44.61559 | 25.51254 | 9837 ft | 269 kts | 262° |
| 2026-03-29 10:09 | 44.60964 | 25.48769 | 9242 ft | 271 kts | 238° |
| 2026-03-29 10:09 | 44.59595 | 25.47008 | 8608 ft | 269 kts | 204° |
| 2026-03-29 10:10 | 44.57799 | 25.46511 | 8039 ft | 263 kts | 176° |
| 2026-03-29 10:10 | 44.55981 | 25.46710 | 7549 ft | 261 kts | 170° |
| 2026-03-29 10:10 | 44.54216 | 25.47213 | 7058 ft | 256 kts | 155° |
| 2026-03-29 10:10 | 44.52795 | 25.48601 | 6561 ft | 246 kts | 124° |
| 2026-03-29 10:11 | 44.52163 | 25.50725 | 6057 ft | 234 kts | 91° |
| 2026-03-29 10:11 | 44.52202 | 25.52956 | 5526 ft | 232 kts | 81° |
| 2026-03-29 10:11 | 44.52548 | 25.57482 | 4551 ft | 234 kts | 78° |
| 2026-03-29 10:12 | 44.52805 | 25.59732 | 4416 ft | 230 kts | 77° |
| 2026-03-29 10:12 | 44.53024 | 25.61902 | 4387 ft | 222 kts | 79° |
| 2026-03-29 10:12 | 44.53133 | 25.63323 | 4382 ft | 221 kts | 81° |
| 2026-03-29 10:12 | 44.53277 | 25.65470 | 4401 ft | 220 kts | 81° |
| 2026-03-29 10:13 | 44.53470 | 25.68250 | 4403 ft | 213 kts | 80° |
| 2026-03-29 10:13 | 44.53627 | 25.70302 | 4400 ft | 211 kts | 79° |
| 2026-03-29 10:13 | 44.53734 | 25.71687 | 4403 ft | 211 kts | 79° |
| 2026-03-29 10:13 | 44.53889 | 25.73713 | 4404 ft | 212 kts | 79° |
| 2026-03-29 10:14 | 44.54044 | 25.75762 | 4427 ft | 211 kts | 79° |
| 2026-03-29 10:14 | 44.54199 | 25.77804 | 4292 ft | 210 kts | 79° |
| 2026-03-29 10:14 | 44.54356 | 25.79846 | 4023 ft | 211 kts | 79° |
| 2026-03-29 10:14 | 44.54504 | 25.81902 | 3695 ft | 213 kts | 79° |
| 2026-03-29 10:15 | 44.54663 | 25.83967 | 3394 ft | 212 kts | 79° |